METAR Data
IDs: Format: Raw Decoded Include TAF

Data at: 0137 UTC 23 Apr 2021

KX26 230115Z AUTO 01014G18KT 10SM CLR 20/17 A3010 RMK AO2 T02010174
KX26 230055Z AUTO 01012KT 10SM CLR 20/17 A3009 RMK AO2 T02000174
KX26 230035Z AUTO 36009KT 10SM CLR 20/17 A3010 RMK AO2 T02000172
KX26 230015Z AUTO 01012KT 10SM CLR 20/17 A3009 RMK AO2 T02010166
KX26 222355Z AUTO 36010KT 10SM CLR 20/17 A3009 RMK AO2 T02020166 10240 20201 402460143
KX26 222335Z AUTO 36013KT 10SM CLR 21/16 A3009 RMK AO2 T02060163
KX26 222315Z AUTO 01012KT 10SM CLR 21/16 A3008 RMK AO2 T02120161
KX26 222255Z AUTO 01013KT 10SM CLR 22/16 A3008 RMK AO2 T02160158
KX26 222235Z AUTO 01013KT 10SM SCT036 22/16 A3007 RMK AO2 T02200161
KX26 222215Z AUTO 02013KT 10SM BKN036 23/16 A3007 RMK AO2 T02260161
KX26 222155Z AUTO 01010KT 10SM CLR 23/16 A3007 RMK AO2 T02310163
KX26 222135Z AUTO 02012KT 10SM BKN036 23/16 A3006 RMK AO2 T02300157
KX26 222115Z AUTO 02010KT 10SM OVC036 23/16 A3007 RMK AO2 T02340158
KX26 222055Z AUTO 02011KT 10SM BKN036 OVC046 23/16 A3007 RMK AO2 T02310158
KX26 222035Z AUTO 01010G16KT 10SM BKN038 BKN046 23/15 A3007 RMK AO2 T02300153
KX26 222015Z AUTO 01014KT 10SM SCT040 SCT046 24/16 A3008 RMK AO2 T02360156
KX26 221955Z AUTO 01013KT 10SM SCT047 24/16 A3007 RMK AO2 T02350158
KX26 221935Z AUTO 36015G20KT 10SM CLR 24/16 A3008 RMK AO2 T02360160
KX26 221915Z AUTO 01013KT 10SM CLR 24/16 A3008 RMK AO2 T02360160
KX26 221855Z AUTO 36015KT 10SM CLR 24/16 A3008 RMK AO2 T02360164
KX26 221835Z AUTO 36014KT 10SM CLR 23/16 A3009 RMK AO2 T02310162
KX26 221815Z AUTO 35012KT 10SM CLR 24/16 A3009 RMK AO2 T02380165
KX26 221755Z AUTO 35016G20KT 10SM CLR 24/17 A3009 RMK AO2 T02370166 10241 20176
KX26 221735Z AUTO 35016KT 10SM CLR 23/16 A3009 RMK AO2 T02330160
KX26 221715Z AUTO 01016G20KT 10SM CLR 23/16 A3010 RMK AO2 T02330160
KX26 221655Z AUTO 36016G22KT 10SM CLR 23/16 A3010 RMK AO2 T02340160
KX26 221635Z AUTO 01017G22KT 10SM CLR 23/16 A3010 RMK AO2 T02350159
KX26 221615Z AUTO 01014KT 10SM CLR 23/16 A3010 RMK AO2 T02330160
KX26 221555Z AUTO 36014G19KT 10SM CLR 23/16 A3010 RMK AO2 T02320163
KX26 221535Z AUTO 36013G18KT 10SM CLR 23/16 A3010 RMK AO2 T02300161
KX26 221515Z AUTO 35015G21KT 10SM CLR 23/16 A3011 RMK AO2 T02290162
KX26 221455Z AUTO 36015G18KT 10SM CLR 23/16 A3010 RMK AO2 T02270162
KX26 221435Z AUTO 36016KT 10SM CLR 23/16 A3010 RMK AO2 T02280162
KX26 221415Z AUTO 36016KT 10SM CLR 23/16 A3010 RMK AO2 T02270158
KX26 221355Z AUTO 01013KT 10SM CLR 23/16 A3009 RMK AO2 T02260162
KX26 221335Z AUTO 01014KT 10SM CLR 22/16 A3008 RMK AO2 T02250161
KX26 221315Z AUTO 01012KT 10SM CLR 22/16 A3008 RMK AO2 T02230159
KX26 221255Z AUTO 01014KT 10SM CLR 22/15 A3008 RMK AO2 T02190152
KX26 221235Z AUTO 01011KT 10SM CLR 21/16 A3008 RMK AO2 T02140156
KX26 221215Z AUTO 01014KT 10SM CLR 21/16 A3007 RMK AO2 T02070158
KX26 221155Z AUTO 33004KT 10SM CLR 17/16 A3007 RMK AO2 T01750159 10175 20143
KX26 221135Z AUTO 31005KT 10SM CLR 17/15 A3007 RMK AO2 T01650152
KX26 221115Z AUTO 32007KT 10SM CLR 16/15 A3006 RMK AO2 T01640149
KX26 221055Z AUTO 31008KT 10SM CLR 17/15 A3006 RMK AO2 T01660148
KX26 221035Z AUTO 31006KT 10SM CLR 16/15 A3005 RMK AO2 T01630148
KX26 221015Z AUTO 31006KT 10SM CLR 16/14 A3004 RMK AO2 T01560144
KX26 220955Z AUTO 30005KT 10SM CLR 15/14 A3003 RMK AO2 T01520141
KX26 220935Z AUTO 28005KT 10SM CLR 15/14 A3003 RMK AO2 T01520140
KX26 220915Z AUTO 30005KT 10SM CLR 15/14 A3002 RMK AO2 T01480137
KX26 220855Z AUTO 29004KT 10SM CLR 15/13 A3001 RMK AO2 T01480133
KX26 220835Z AUTO 30004KT 10SM CLR 15/13 A3001 RMK AO2 T01480134
KX26 220815Z AUTO 28004KT 10SM CLR 16/14 A3001 RMK AO2 T01560135
KX26 220755Z AUTO 30003KT 10SM CLR 15/13 A3001 RMK AO2 T01540134
KX26 220735Z AUTO 28004KT 10SM CLR 15/13 A3001 RMK AO2 T01480135
KX26 220710Z AUTO 26004KT 10SM CLR 16/13 A3001 RMK AO2 T01600134
KX26 220655Z AUTO 27004KT 10SM CLR 16/13 A3001 RMK AO2 T01630134
KX26 220635Z AUTO 28004KT 10SM CLR 16/13 A3001 RMK AO2 T01620133
KX26 220615Z AUTO 25003KT 10SM CLR 16/14 A3002 RMK AO2 T01640136
KX26 220555Z AUTO 28004KT 10SM CLR 17/13 A3002 RMK AO2 T01730128 10246 20172
KX26 220535Z AUTO 29006KT 10SM CLR 17/13 A3002 RMK AO2 T01740128
KX26 220515Z AUTO 30005KT 10SM CLR 18/13 A3002 RMK AO2 T01770128
KX26 220455Z AUTO 27005KT 10SM CLR 19/13 A3002 RMK AO2 T01860129
KX26 220435Z AUTO 26006KT 10SM CLR 19/13 A3001 RMK AO2 T01890130
KX26 220415Z AUTO 28006KT 10SM CLR 19/13 A3000 RMK AO2 T01940134
KX26 220355Z AUTO 28004KT 10SM CLR 20/14 A3000 RMK AO2 T01990140
KX26 220335Z AUTO 29005KT 10SM CLR 20/15 A3001 RMK AO2 T02040146
KX26 220315Z AUTO 28005KT 10SM CLR 21/16 A3000 RMK AO2 T02110159
KX26 220255Z AUTO 28004KT 10SM CLR 21/18 A3001 RMK AO2 T02100180
KX26 220235Z AUTO 26004KT 10SM CLR 22/18 A3001 RMK AO2 T02150185
KX26 220215Z AUTO 27003KT 10SM CLR 21/19 A3000 RMK AO2 T02150187
KX26 220155Z AUTO 23004KT 10SM CLR 22/19 A3000 RMK AO2 T02210187
KX26 220135Z AUTO 00000KT 10SM CLR 23/18 A2999 RMK AO2 T02280184
KX26 220115Z AUTO 21005KT 10SM CLR 23/18 A2999 RMK AO2 T02280184
KX26 220055Z AUTO 21007KT 10SM CLR 23/18 A2998 RMK AO2 T02270185
KX26 220035Z AUTO 20004KT 10SM CLR 23/19 A2997 RMK AO2 T02340186
KX26 220015Z AUTO 20005KT 10SM CLR 24/19 A2997 RMK AO2 T02360186
KX26 212355Z AUTO 22004KT 10SM CLR 25/18 A2996 RMK AO2 T02460183 10282 20245 402820204
KX26 212335Z AUTO 23006KT 10SM CLR 26/18 A2996 RMK AO2 T02560178
KX26 212315Z AUTO 23005KT 10SM CLR 27/17 A2996 RMK AO2 T02660175
KX26 212255Z AUTO 23007KT 10SM CLR 27/18 A2995 RMK AO2 T02730180
KX26 212235Z AUTO 22007KT 10SM CLR 28/18 A2995 RMK AO2 T02760177
KX26 212215Z AUTO 21009KT 10SM CLR 28/17 A2995 RMK AO2 T02770174
KX26 212155Z AUTO 24006KT 10SM CLR 28/18 A2995 RMK AO2 T02790175
KX26 212135Z AUTO 24008KT 10SM CLR 28/18 A2995 RMK AO2 T02790182
KX26 212115Z AUTO 24009KT 10SM CLR 28/18 A2995 RMK AO2 T02800182
KX26 212055Z AUTO 24007KT 10SM CLR 28/19 A2994 RMK AO2 T02770186
KX26 212035Z AUTO 25006KT 10SM CLR 28/19 A2995 RMK AO2 T02780189
KX26 212015Z AUTO 26008KT 10SM SCT038 28/19 A2995 RMK AO2 T02770190
KX26 211955Z AUTO 22007KT 10SM SCT038 26/20 A2996 RMK AO2 T02640196
KX26 211935Z AUTO 24007KT 10SM SCT075 27/19 A2996 RMK AO2 T02660194
KX26 211915Z AUTO 24008KT 10SM SCT075 27/19 A2997 RMK AO2 T02700191
KX26 211855Z AUTO 21007KT 10SM BKN075 26/20 A2998 RMK AO2 T02640195
KX26 211835Z AUTO 24006KT 10SM OVC075 26/19 A2999 RMK AO2 T02630193
KX26 211815Z AUTO 23005KT 10SM OVC065 26/19 A2999 RMK AO2 T02620191
KX26 211755Z AUTO 24005KT 10SM SCT065 OVC075 27/19 A2999 RMK AO2 T02650192 10274 20214
KX26 211735Z AUTO 26006KT 10SM SCT035 BKN060 OVC070 26/19 A3000 RMK AO2 T02620189
KX26 211715Z AUTO 33004KT 10SM OVC070 27/18 A3000 RMK AO2 T02680180
KX26 211655Z AUTO 29004KT 10SM OVC070 27/20 A3000 RMK AO2 T02660199
KX26 211635Z AUTO 28005KT 10SM OVC070 26/21 A3000 RMK AO2 T02630208
KX26 211615Z AUTO 27005KT 10SM SCT028 OVC060 26/21 A3001 RMK AO2 T02600209
KX26 211555Z AUTO 28007KT 10SM SCT028 BKN034 OVC060 26/20 A3002 RMK AO2 T02570198
KX26 211535Z AUTO 27007KT 10SM SCT026 BKN034 BKN060 26/20 A3002 RMK AO2 LTG DSNT SW T02650199
KX26 211515Z AUTO 27006KT 10SM SCT024 BKN031 26/21 A3000 RMK AO2 T02640207
KX26 211455Z AUTO 30008KT 10SM SCT019 SCT028 SCT035 26/21 A3000 RMK AO2 T02600208
KX26 211435Z AUTO 28009KT 10SM BKN017 26/22 A3000 RMK AO2 T02590215
KX26 211415Z AUTO 10SM BKN015 26/22 A2999 RMK AO2
KX26 211355Z AUTO 31008KT 10SM SCT011 25/22 A2998 RMK AO2 T02480219